createdAt,value
2017-10-10T00:04:32.000Z,60.5
2017-10-10T00:14:32.000Z,60.5
2017-10-10T00:24:32.000Z,60.3
2017-10-10T00:34:32.000Z,59.7
2017-10-10T00:44:32.000Z,59.9
2017-10-10T00:54:33.000Z,59.8
2017-10-10T01:04:33.000Z,59.9
2017-10-10T01:14:33.000Z,60.1
2017-10-10T01:24:33.000Z,60
2017-10-10T01:34:33.000Z,60.1
2017-10-10T01:44:33.000Z,60.1
2017-10-10T01:54:33.000Z,60.1
2017-10-10T02:04:33.000Z,60
2017-10-10T02:14:33.000Z,60.3
2017-10-10T02:24:33.000Z,60.3
2017-10-10T02:34:33.000Z,60.4
2017-10-10T02:44:33.000Z,60.4
2017-10-10T02:54:33.000Z,60.3
2017-10-10T03:04:33.000Z,60.3
2017-10-10T03:14:33.000Z,60.4
2017-10-10T03:24:33.000Z,60.2
2017-10-10T03:34:33.000Z,60.1
2017-10-10T03:44:33.000Z,60
2017-10-10T03:54:33.000Z,59.8
2017-10-10T04:04:33.000Z,59.9
2017-10-10T04:14:33.000Z,59.9
2017-10-10T04:24:33.000Z,59.9
2017-10-10T04:34:33.000Z,60.1
2017-10-10T04:44:33.000Z,59.8
2017-10-10T04:54:33.000Z,59.8
2017-10-10T05:04:33.000Z,60
2017-10-10T05:14:33.000Z,60
2017-10-10T05:24:33.000Z,60.1
2017-10-10T05:34:33.000Z,60.4
2017-10-10T05:44:33.000Z,60.5
2017-10-10T05:54:33.000Z,60.9
2017-10-10T06:04:33.000Z,61.1
2017-10-10T06:14:33.000Z,61.1
2017-10-10T06:24:33.000Z,60.9
2017-10-10T06:34:33.000Z,61
2017-10-10T06:44:33.000Z,60.9
2017-10-10T06:54:33.000Z,60.9
2017-10-10T07:04:33.000Z,60.9
2017-10-10T07:14:33.000Z,61.3
2017-10-10T07:24:33.000Z,61.3
2017-10-10T07:34:33.000Z,61.6
2017-10-10T07:44:34.000Z,61.8
2017-10-10T07:54:34.000Z,62
2017-10-10T08:04:34.000Z,63.2
2017-10-10T08:14:34.000Z,62.8
2017-10-10T08:24:34.000Z,62.2
2017-10-10T08:34:34.000Z,62.3
2017-10-10T08:44:34.000Z,62.3
2017-10-10T08:54:34.000Z,62.3
2017-10-10T09:04:34.000Z,62.4
2017-10-10T09:14:34.000Z,63
2017-10-10T09:24:34.000Z,63
2017-10-10T09:34:34.000Z,63
2017-10-10T09:44:34.000Z,62.8
2017-10-10T09:54:34.000Z,62.9
2017-10-10T10:04:34.000Z,63
2017-10-10T10:14:34.000Z,63.2
2017-10-10T10:24:34.000Z,63.3
2017-10-10T10:34:34.000Z,63.1
2017-10-10T10:44:34.000Z,63.2
2017-10-10T10:54:34.000Z,63.5
2017-10-10T11:04:34.000Z,63.5
2017-10-10T11:14:34.000Z,63.2
2017-10-10T11:24:34.000Z,63.4
2017-10-10T11:34:34.000Z,63.5
2017-10-10T11:44:34.000Z,63.5
2017-10-10T11:54:34.000Z,63.6
2017-10-10T12:04:34.000Z,63.9
2017-10-10T12:14:34.000Z,64
2017-10-10T12:24:34.000Z,64
2017-10-10T12:34:34.000Z,64.1
2017-10-10T12:44:34.000Z,64
2017-10-10T12:54:34.000Z,63.9
2017-10-10T13:04:34.000Z,63.3
2017-10-10T13:14:34.000Z,63.1
2017-10-10T13:24:34.000Z,62.8
2017-10-10T13:34:34.000Z,62.8
2017-10-10T13:44:34.000Z,62.8
2017-10-10T13:54:34.000Z,62.8
2017-10-10T14:04:34.000Z,62.8
2017-10-10T14:14:34.000Z,63.1
2017-10-10T14:24:34.000Z,63.4
2017-10-10T14:44:35.000Z,63.9
2017-10-10T14:54:35.000Z,63.2
2017-10-10T15:04:35.000Z,62.9
2017-10-10T15:14:35.000Z,62.9
2017-10-10T15:24:35.000Z,62.9
2017-10-10T15:34:35.000Z,63.1
2017-10-10T15:44:37.000Z,62.9
2017-10-10T15:54:35.000Z,62.9
2017-10-10T16:04:35.000Z,62.9
2017-10-10T16:14:35.000Z,63
2017-10-10T16:24:35.000Z,62.9
2017-10-10T16:34:35.000Z,62.9
2017-10-10T16:44:35.000Z,62.8
2017-10-10T16:54:35.000Z,62.8
2017-10-10T17:04:36.000Z,62.8
2017-10-10T17:14:35.000Z,62.7
2017-10-10T17:24:35.000Z,62.6
2017-10-10T17:34:35.000Z,62.8
2017-10-10T17:44:35.000Z,62.8
2017-10-10T17:54:35.000Z,62.6
2017-10-10T18:04:35.000Z,62.7
2017-10-10T18:14:35.000Z,62.7
2017-10-10T18:24:35.000Z,62.6
2017-10-10T18:34:36.000Z,62.6
2017-10-10T18:44:35.000Z,62.6
2017-10-10T18:54:35.000Z,62.6
2017-10-10T19:04:35.000Z,62.6
2017-10-10T19:14:35.000Z,62.4
2017-10-10T19:24:35.000Z,62.5
2017-10-10T19:34:35.000Z,62.3
2017-10-10T19:44:35.000Z,62.3
2017-10-10T19:54:35.000Z,62.4
2017-10-10T20:04:35.000Z,62.4
2017-10-10T20:14:35.000Z,62.4
2017-10-10T20:24:35.000Z,62.3
2017-10-10T20:34:35.000Z,62.3
2017-10-10T20:54:35.000Z,62.4
2017-10-10T21:04:35.000Z,62.1
2017-10-10T21:14:35.000Z,62.3
2017-10-10T21:24:35.000Z,62.3
2017-10-10T21:34:36.000Z,62.3
2017-10-10T21:44:36.000Z,62.3
2017-10-10T21:54:36.000Z,62.2
2017-10-10T22:04:36.000Z,62
2017-10-10T22:14:36.000Z,62
2017-10-10T22:24:36.000Z,62.1
2017-10-10T22:34:36.000Z,62.1
2017-10-10T22:44:36.000Z,62.2
2017-10-10T22:54:36.000Z,62.1
2017-10-10T23:04:36.000Z,62
2017-10-10T23:14:36.000Z,62
2017-10-10T23:24:36.000Z,62
2017-10-10T23:34:36.000Z,62
2017-10-10T23:44:36.000Z,62
2017-10-10T23:54:36.000Z,62
